sensor_id;sensor_type;location;lat;lon;timestamp;pressure;altitude;pressure_sealevel;temperature;humidity
71239;BME280;61342;51.442;7.370;2023-03-13T00:00:25;98917.03;;;11.50;83.41
71239;BME280;61342;51.442;7.370;2023-03-13T00:01:30;98916.44;;;11.51;83.29
71239;BME280;61342;51.442;7.370;2023-03-13T00:02:30;98914.91;;;11.50;83.54
71239;BME280;61342;51.442;7.370;2023-03-13T00:03:31;98915.69;;;11.51;83.24
71239;BME280;61342;51.442;7.370;2023-03-13T00:04:31;98912.81;;;11.51;83.79
71239;BME280;61342;51.442;7.370;2023-03-13T00:05:34;98918.56;;;11.51;83.51
71239;BME280;61342;51.442;7.370;2023-03-13T00:06:36;98912.03;;;11.50;83.88
71239;BME280;61342;51.442;7.370;2023-03-13T00:07:37;98901.88;;;11.49;83.60
71239;BME280;61342;51.442;7.370;2023-03-13T00:08:38;98903.63;;;11.52;83.61
71239;BME280;61342;51.442;7.370;2023-03-13T00:09:38;98902.63;;;11.50;83.76
71239;BME280;61342;51.442;7.370;2023-03-13T00:10:40;98895.72;;;11.52;83.66
71239;BME280;61342;51.442;7.370;2023-03-13T00:11:41;98908.78;;;11.53;83.75
71239;BME280;61342;51.442;7.370;2023-03-13T00:12:42;98901.50;;;11.52;84.12
71239;BME280;61342;51.442;7.370;2023-03-13T00:13:42;98892.69;;;11.51;84.01
71239;BME280;61342;51.442;7.370;2023-03-13T00:14:43;98886.91;;;11.51;84.00
71239;BME280;61342;51.442;7.370;2023-03-13T00:15:44;98896.53;;;11.53;83.97
71239;BME280;61342;51.442;7.370;2023-03-13T00:16:44;98893.66;;;11.53;84.17
71239;BME280;61342;51.442;7.370;2023-03-13T00:17:44;98889.97;;;11.52;84.23
71239;BME280;61342;51.442;7.370;2023-03-13T00:18:46;98891.53;;;11.53;84.17
71239;BME280;61342;51.442;7.370;2023-03-13T00:19:47;98883.66;;;11.54;84.27
71239;BME280;61342;51.442;7.370;2023-03-13T00:20:49;98893.06;;;11.54;83.86
71239;BME280;61342;51.442;7.370;2023-03-13T00:21:49;98883.66;;;11.54;84.16
71239;BME280;61342;51.442;7.370;2023-03-13T00:22:50;98877.72;;;11.52;84.26
71239;BME280;61342;51.442;7.370;2023-03-13T00:23:51;98881.56;;;11.54;84.10
71239;BME280;61342;51.442;7.370;2023-03-13T00:24:51;98885.19;;;11.55;84.45
71239;BME280;61342;51.442;7.370;2023-03-13T00:25:59;98873.50;;;11.53;84.27
71239;BME280;61342;51.442;7.370;2023-03-13T00:27:00;98870.41;;;11.51;84.49
71239;BME280;61342;51.442;7.370;2023-03-13T00:28:02;98882.69;;;11.51;84.31
71239;BME280;61342;51.442;7.370;2023-03-13T00:29:02;98867.16;;;11.54;84.46
71239;BME280;61342;51.442;7.370;2023-03-13T00:30:03;98865.06;;;11.55;84.20
71239;BME280;61342;51.442;7.370;2023-03-13T00:32:04;98863.31;;;11.52;84.40
71239;BME280;61342;51.442;7.370;2023-03-13T00:33:04;98867.94;;;11.55;84.45
71239;BME280;61342;51.442;7.370;2023-03-13T00:34:05;98864.28;;;11.54;84.59
71239;BME280;61342;51.442;7.370;2023-03-13T00:35:05;98870.06;;;11.54;84.78
71239;BME280;61342;51.442;7.370;2023-03-13T00:36:16;98868.50;;;11.53;84.46
71239;BME280;61342;51.442;7.370;2023-03-13T00:37:17;98862.19;;;11.55;84.81
71239;BME280;61342;51.442;7.370;2023-03-13T00:38:17;98866.38;;;11.54;84.69
71239;BME280;61342;51.442;7.370;2023-03-13T00:39:17;98861.22;;;11.52;85.09
71239;BME280;61342;51.442;7.370;2023-03-13T00:40:18;98860.06;;;11.55;85.08
71239;BME280;61342;51.442;7.370;2023-03-13T00:41:22;98857.19;;;11.55;84.97
71239;BME280;61342;51.442;7.370;2023-03-13T00:42:23;98849.13;;;11.54;85.54
71239;BME280;61342;51.442;7.370;2023-03-13T00:43:23;98849.91;;;11.54;85.57
71239;BME280;61342;51.442;7.370;2023-03-13T00:44:24;98858.31;;;11.52;85.44
71239;BME280;61342;51.442;7.370;2023-03-13T00:45:24;98854.31;;;11.55;85.84
71239;BME280;61342;51.442;7.370;2023-03-13T00:46:28;98845.47;;;11.53;85.91
71239;BME280;61342;51.442;7.370;2023-03-13T00:47:28;98846.44;;;11.56;86.13
71239;BME280;61342;51.442;7.370;2023-03-13T00:48:29;98841.28;;;11.54;86.19
71239;BME280;61342;51.442;7.370;2023-03-13T00:49:30;98830.13;;;11.51;86.68
71239;BME280;61342;51.442;7.370;2023-03-13T00:50:30;98833.00;;;11.51;86.75
71239;BME280;61342;51.442;7.370;2023-03-13T00:51:31;98835.88;;;11.51;86.74
71239;BME280;61342;51.442;7.370;2023-03-13T00:52:31;98830.88;;;11.51;86.64
71239;BME280;61342;51.442;7.370;2023-03-13T00:53:32;98835.13;;;11.51;87.09
71239;BME280;61342;51.442;7.370;2023-03-13T00:54:32;98821.50;;;11.51;87.12
71239;BME280;61342;51.442;7.370;2023-03-13T00:55:33;98819.94;;;11.50;87.50
71239;BME280;61342;51.442;7.370;2023-03-13T00:56:33;98826.06;;;11.47;87.75
71239;BME280;61342;51.442;7.370;2023-03-13T00:57:34;98818.94;;;11.48;88.08
71239;BME280;61342;51.442;7.370;2023-03-13T00:58:38;98822.06;;;11.50;87.89
71239;BME280;61342;51.442;7.370;2023-03-13T00:59:38;98823.38;;;11.48;87.91
71239;BME280;61342;51.442;7.370;2023-03-13T01:00:39;98803.63;;;11.45;88.10
71239;BME280;61342;51.442;7.370;2023-03-13T01:01:40;98819.53;;;11.46;88.16
71239;BME280;61342;51.442;7.370;2023-03-13T01:02:41;98805.34;;;11.48;88.00
71239;BME280;61342;51.442;7.370;2023-03-13T01:03:45;98800.75;;;11.45;88.18
71239;BME280;61342;51.442;7.370;2023-03-13T01:04:45;98804.56;;;11.48;88.24
71239;BME280;61342;51.442;7.370;2023-03-13T01:05:58;98816.66;;;11.46;88.28
71239;BME280;61342;51.442;7.370;2023-03-13T01:06:58;98815.31;;;11.47;88.39
71239;BME280;61342;51.442;7.370;2023-03-13T01:07:59;98799.78;;;11.43;88.80
71239;BME280;61342;51.442;7.370;2023-03-13T01:08:59;98800.16;;;11.47;88.74
71239;BME280;61342;51.442;7.370;2023-03-13T01:10:00;98797.06;;;11.45;88.78
71239;BME280;61342;51.442;7.370;2023-03-13T01:11:06;98799.97;;;11.45;88.76
71239;BME280;61342;51.442;7.370;2023-03-13T01:12:08;98790.75;;;11.46;89.15
71239;BME280;61342;51.442;7.370;2023-03-13T01:13:08;98792.88;;;11.46;89.25
71239;BME280;61342;51.442;7.370;2023-03-13T01:14:14;98790.75;;;11.46;89.30
71239;BME280;61342;51.442;7.370;2023-03-13T01:15:15;98785.56;;;11.45;89.33
71239;BME280;61342;51.442;7.370;2023-03-13T01:16:18;98780.38;;;11.43;89.62
71239;BME280;61342;51.442;7.370;2023-03-13T01:17:19;98784.81;;;11.44;90.08
71239;BME280;61342;51.442;7.370;2023-03-13T01:18:19;98767.91;;;11.41;90.04
71239;BME280;61342;51.442;7.370;2023-03-13T01:19:19;98775.97;;;11.42;90.12
71239;BME280;61342;51.442;7.370;2023-03-13T01:20:20;98772.50;;;11.44;90.63
71239;BME280;61342;51.442;7.370;2023-03-13T01:21:21;98762.38;;;11.43;90.64
71239;BME280;61342;51.442;7.370;2023-03-13T01:22:22;98757.94;;;11.42;90.63
71239;BME280;61342;51.442;7.370;2023-03-13T01:23:22;98755.81;;;11.42;90.75
71239;BME280;61342;51.442;7.370;2023-03-13T01:24:23;98757.16;;;11.41;91.21
71239;BME280;61342;51.442;7.370;2023-03-13T01:25:23;98748.53;;;11.41;91.50
71239;BME280;61342;51.442;7.370;2023-03-13T01:26:25;98734.53;;;11.38;91.07
71239;BME280;61342;51.442;7.370;2023-03-13T01:27:25;98733.22;;;11.39;91.53
71239;BME280;61342;51.442;7.370;2023-03-13T01:28:26;98731.66;;;11.38;91.67
71239;BME280;61342;51.442;7.370;2023-03-13T01:29:26;98724.94;;;11.35;91.94
71239;BME280;61342;51.442;7.370;2023-03-13T01:30:27;98718.81;;;11.39;92.19
71239;BME280;61342;51.442;7.370;2023-03-13T01:31:30;98726.66;;;11.38;92.24
71239;BME280;61342;51.442;7.370;2023-03-13T01:32:34;98719.19;;;11.35;92.46
71239;BME280;61342;51.442;7.370;2023-03-13T01:33:35;98724.94;;;11.35;93.01
71239;BME280;61342;51.442;7.370;2023-03-13T01:34:35;98725.69;;;11.36;92.56
71239;BME280;61342;51.442;7.370;2023-03-13T01:35:35;98722.06;;;11.35;92.82
71239;BME280;61342;51.442;7.370;2023-03-13T01:36:36;98722.25;;;11.37;93.03
71239;BME280;61342;51.442;7.370;2023-03-13T01:37:37;98711.72;;;11.32;93.16
71239;BME280;61342;51.442;7.370;2023-03-13T01:38:38;98725.69;;;11.36;93.09
71239;BME280;61342;51.442;7.370;2023-03-13T01:39:38;98725.69;;;11.36;93.19
71239;BME280;61342;51.442;7.370;2023-03-13T01:40:47;98727.59;;;11.33;93.51
71239;BME280;61342;51.442;7.370;2023-03-13T01:41:47;98727.06;;;11.35;93.73
71239;BME280;61342;51.442;7.370;2023-03-13T01:42:58;98730.50;;;11.33;93.81
71239;BME280;61342;51.442;7.370;2023-03-13T01:44:00;98706.72;;;11.33;93.97
71239;BME280;61342;51.442;7.370;2023-03-13T01:45:00;98722.06;;;11.35;93.95
71239;BME280;61342;51.442;7.370;2023-03-13T01:46:10;98710.75;;;11.30;94.11
71239;BME280;61342;51.442;7.370;2023-03-13T01:47:15;98719.38;;;11.30;94.54
71239;BME280;61342;51.442;7.370;2023-03-13T01:48:16;98704.41;;;11.31;94.58
71239;BME280;61342;51.442;7.370;2023-03-13T01:49:24;98709.41;;;11.31;95.06
71239;BME280;61342;51.442;7.370;2023-03-13T01:50:26;98704.22;;;11.29;95.49
71239;BME280;61342;51.442;7.370;2023-03-13T01:51:39;98689.06;;;11.29;95.61
71239;BME280;61342;51.442;7.370;2023-03-13T01:52:41;98685.81;;;11.25;95.77
71239;BME280;61342;51.442;7.370;2023-03-13T01:53:43;98684.47;;;11.26;95.93
71239;BME280;61342;51.442;7.370;2023-03-13T01:54:53;98681.97;;;11.22;96.17
71239;BME280;61342;51.442;7.370;2023-03-13T01:55:56;98686.38;;;11.23;96.73
71239;BME280;61342;51.442;7.370;2023-03-13T01:57:05;98681.19;;;11.22;96.98
71239;BME280;61342;51.442;7.370;2023-03-13T01:58:06;98675.44;;;11.22;97.23
71239;BME280;61342;51.442;7.370;2023-03-13T01:59:08;98662.41;;;11.21;97.61
71239;BME280;61342;51.442;7.370;2023-03-13T02:00:13;98674.50;;;11.19;97.71
71239;BME280;61342;51.442;7.370;2023-03-13T02:01:16;98663.56;;;11.18;98.11
71239;BME280;61342;51.442;7.370;2023-03-13T02:02:18;98660.47;;;11.16;98.09
71239;BME280;61342;51.442;7.370;2023-03-13T02:03:20;98664.69;;;11.15;98.13
71239;BME280;61342;51.442;7.370;2023-03-13T02:04:21;98661.25;;;11.16;98.77
71239;BME280;61342;51.442;7.370;2023-03-13T02:05:24;98659.91;;;11.17;98.96
71239;BME280;61342;51.442;7.370;2023-03-13T02:06:29;98651.84;;;11.16;99.12
71239;BME280;61342;51.442;7.370;2023-03-13T02:07:35;98651.66;;;11.14;99.26
71239;BME280;61342;51.442;7.370;2023-03-13T02:08:42;98659.31;;;11.11;99.38
71239;BME280;61342;51.442;7.370;2023-03-13T02:09:49;98663.75;;;11.12;99.73
71239;BME280;61342;51.442;7.370;2023-03-13T02:11:15;98643.78;;;11.07;99.79
71239;BME280;61342;51.442;7.370;2023-03-13T02:12:23;98633.06;;;11.07;100.00
71239;BME280;61342;51.442;7.370;2023-03-13T02:13:27;98633.63;;;11.06;100.00
71239;BME280;61342;51.442;7.370;2023-03-13T02:14:31;98643.97;;;11.09;100.00
71239;BME280;61342;51.442;7.370;2023-03-13T02:15:33;98637.09;;;11.04;100.00
71239;BME280;61342;51.442;7.370;2023-03-13T02:16:34;98642.84;;;11.04;100.00
71239;BME280;61342;51.442;7.370;2023-03-13T02:17:36;98633.44;;;11.04;100.00
71239;BME280;61342;51.442;7.370;2023-03-13T02:18:37;98632.09;;;11.05;100.00
71239;BME280;61342;51.442;7.370;2023-03-13T02:19:49;98623.84;;;11.01;100.00
71239;BME280;61342;51.442;7.370;2023-03-13T02:20:59;98633.25;;;11.02;100.00
71239;BME280;61342;51.442;7.370;2023-03-13T02:23:38;98609.84;;;10.98;100.00
71239;BME280;61342;51.442;7.370;2023-03-13T02:25:51;98600.06;;;10.93;100.00
71239;BME280;61342;51.442;7.370;2023-03-13T02:26:55;98603.13;;;10.95;100.00
71239;BME280;61342;51.442;7.370;2023-03-13T02:28:11;98604.47;;;10.94;100.00
71239;BME280;61342;51.442;7.370;2023-03-13T02:29:12;98600.84;;;10.94;100.00
71239;BME280;61342;51.442;7.370;2023-03-13T02:30:17;98608.88;;;10.95;100.00
71239;BME280;61342;51.442;7.370;2023-03-13T02:31:18;98587.97;;;10.95;100.00
71239;BME280;61342;51.442;7.370;2023-03-13T02:32:20;98601.03;;;10.96;100.00
71239;BME280;61342;51.442;7.370;2023-03-13T02:33:25;98590.69;;;10.93;100.00
71239;BME280;61342;51.442;7.370;2023-03-13T02:34:29;98594.31;;;10.93;100.00
71239;BME280;61342;51.442;7.370;2023-03-13T02:35:31;98579.94;;;10.93;100.00
71239;BME280;61342;51.442;7.370;2023-03-13T02:36:32;98574.59;;;10.90;100.00
71239;BME280;61342;51.442;7.370;2023-03-13T02:37:33;98580.72;;;10.94;100.00
71239;BME280;61342;51.442;7.370;2023-03-13T02:38:41;98571.13;;;10.92;100.00
71239;BME280;61342;51.442;7.370;2023-03-13T02:39:45;98576.31;;;10.93;100.00
71239;BME280;61342;51.442;7.370;2023-03-13T02:40:47;98569.59;;;10.91;100.00
71239;BME280;61342;51.442;7.370;2023-03-13T02:41:51;98560.38;;;10.92;100.00
71239;BME280;61342;51.442;7.370;2023-03-13T02:42:53;98558.84;;;10.91;100.00
71239;BME280;61342;51.442;7.370;2023-03-13T02:43:54;98554.63;;;10.92;100.00
71239;BME280;61342;51.442;7.370;2023-03-13T02:44:55;98562.50;;;10.92;100.00
71239;BME280;61342;51.442;7.370;2023-03-13T02:47:07;98549.66;;;10.92;100.00
71239;BME280;61342;51.442;7.370;2023-03-13T02:48:08;98551.00;;;10.92;100.00
71239;BME280;61342;51.442;7.370;2023-03-13T02:50:22;98545.25;;;10.92;100.00
71239;BME280;61342;51.442;7.370;2023-03-13T02:52:30;98548.88;;;10.92;100.00
71239;BME280;61342;51.442;7.370;2023-03-13T02:53:32;98544.69;;;10.93;100.00
71239;BME280;61342;51.442;7.370;2023-03-13T02:54:37;98550.44;;;10.93;100.00
71239;BME280;61342;51.442;7.370;2023-03-13T02:55:39;98547.56;;;10.93;100.00
71239;BME280;61342;51.442;7.370;2023-03-13T02:56:41;98557.72;;;10.94;100.00
71239;BME280;61342;51.442;7.370;2023-03-13T02:57:42;98539.50;;;10.92;100.00
71239;BME280;61342;51.442;7.370;2023-03-13T02:58:43;98547.34;;;10.91;100.00
71239;BME280;61342;51.442;7.370;2023-03-13T02:59:43;98545.25;;;10.92;100.00
71239;BME280;61342;51.442;7.370;2023-03-13T03:00:44;98536.63;;;10.92;100.00
71239;BME280;61342;51.442;7.370;2023-03-13T03:01:44;98546.22;;;10.94;100.00
71239;BME280;61342;51.442;7.370;2023-03-13T03:02:45;98535.28;;;10.92;100.00
71239;BME280;61342;51.442;7.370;2023-03-13T03:03:45;98542.56;;;10.93;100.00
71239;BME280;61342;51.442;7.370;2023-03-13T03:04:46;98535.84;;;10.91;100.00
71239;BME280;61342;51.442;7.370;2023-03-13T03:05:46;98527.03;;;10.89;100.00
71239;BME280;61342;51.442;7.370;2023-03-13T03:06:47;98532.03;;;10.96;100.00
71239;BME280;61342;51.442;7.370;2023-03-13T03:07:49;98537.03;;;10.95;100.00
71239;BME280;61342;51.442;7.370;2023-03-13T03:08:50;98533.56;;;10.97;100.00
71239;BME280;61342;51.442;7.370;2023-03-13T03:09:50;98528.97;;;10.94;100.00
71239;BME280;61342;51.442;7.370;2023-03-13T03:10:50;98519.19;;;10.97;100.00
71239;BME280;61342;51.442;7.370;2023-03-13T03:11:51;98526.66;;;11.00;100.00
71239;BME280;61342;51.442;7.370;2023-03-13T03:12:51;98528.19;;;11.01;100.00
71239;BME280;61342;51.442;7.370;2023-03-13T03:13:51;98533.94;;;11.01;100.00
71239;BME280;61342;51.442;7.370;2023-03-13T03:14:52;98523.78;;;11.00;100.00
71239;BME280;61342;51.442;7.370;2023-03-13T03:15:52;98525.31;;;11.01;100.00
71239;BME280;61342;51.442;7.370;2023-03-13T03:16:52;98528.19;;;11.01;100.00
71239;BME280;61342;51.442;7.370;2023-03-13T03:17:53;98527.63;;;11.02;100.00
71239;BME280;61342;51.442;7.370;2023-03-13T03:18:53;98519.00;;;11.02;100.00
71239;BME280;61342;51.442;7.370;2023-03-13T03:19:53;98521.13;;;11.02;100.00
71239;BME280;61342;51.442;7.370;2023-03-13T03:20:54;98523.19;;;11.01;100.00
71239;BME280;61342;51.442;7.370;2023-03-13T03:21:54;98510.94;;;11.01;100.00
71239;BME280;61342;51.442;7.370;2023-03-13T03:22:54;98497.53;;;11.03;100.00
71239;BME280;61342;51.442;7.370;2023-03-13T03:23:55;98498.28;;;11.04;100.00
71239;BME280;61342;51.442;7.370;2023-03-13T03:24:55;98502.13;;;11.06;100.00
71239;BME280;61342;51.442;7.370;2023-03-13T03:25:55;98496.94;;;11.05;100.00
71239;BME280;61342;51.442;7.370;2023-03-13T03:26:56;98494.66;;;11.03;100.00
71239;BME280;61342;51.442;7.370;2023-03-13T03:27:56;98514.38;;;11.07;100.00
71239;BME280;61342;51.442;7.370;2023-03-13T03:28:56;98504.41;;;11.08;100.00
71239;BME280;61342;51.442;7.370;2023-03-13T03:29:57;98496.94;;;11.05;100.00
71239;BME280;61342;51.442;7.370;2023-03-13T03:31:03;98495.63;;;11.06;100.00
71239;BME280;61342;51.442;7.370;2023-03-13T03:32:03;98500.00;;;11.07;100.00
71239;BME280;61342;51.442;7.370;2023-03-13T03:33:04;98500.00;;;11.07;100.00
71239;BME280;61342;51.442;7.370;2023-03-13T03:34:04;98494.09;;;11.05;100.00
71239;BME280;61342;51.442;7.370;2023-03-13T03:35:05;98493.31;;;11.04;100.00
71239;BME280;61342;51.442;7.370;2023-03-13T03:36:09;98492.91;;;11.08;100.00
71239;BME280;61342;51.442;7.370;2023-03-13T03:37:10;98481.41;;;11.08;100.00
71239;BME280;61342;51.442;7.370;2023-03-13T03:38:10;98494.47;;;11.09;100.00
71239;BME280;61342;51.442;7.370;2023-03-13T03:39:10;98496.59;;;11.08;100.00
71239;BME280;61342;51.442;7.370;2023-03-13T03:40:11;98498.09;;;11.09;100.00
71239;BME280;61342;51.442;7.370;2023-03-13T03:41:12;98494.63;;;11.11;100.00
71239;BME280;61342;51.442;7.370;2023-03-13T03:42:13;98495.22;;;11.09;100.00
71239;BME280;61342;51.442;7.370;2023-03-13T03:43:13;98498.88;;;11.10;100.00
71239;BME280;61342;51.442;7.370;2023-03-13T03:44:14;98495.41;;;11.11;100.00
71239;BME280;61342;51.442;7.370;2023-03-13T03:45:14;98478.16;;;11.11;100.00
71239;BME280;61342;51.442;7.370;2023-03-13T03:46:14;98486.00;;;11.11;100.00
71239;BME280;61342;51.442;7.370;2023-03-13T03:47:15;98477.22;;;11.09;100.00
71239;BME280;61342;51.442;7.370;2023-03-13T03:48:15;98487.38;;;11.10;100.00
71239;BME280;61342;51.442;7.370;2023-03-13T03:49:15;98490.44;;;11.12;100.00
71239;BME280;61342;51.442;7.370;2023-03-13T03:50:16;98496.38;;;11.14;100.00
71239;BME280;61342;51.442;7.370;2023-03-13T03:51:16;98480.47;;;11.13;100.00
71239;BME280;61342;51.442;7.370;2023-03-13T03:52:16;98486.38;;;11.15;100.00
71239;BME280;61342;51.442;7.370;2023-03-13T03:53:17;98476.84;;;11.12;100.00
71239;BME280;61342;51.442;7.370;2023-03-13T03:54:17;98491.97;;;11.13;100.00
71239;BME280;61342;51.442;7.370;2023-03-13T03:55:18;98475.09;;;11.17;100.00
71239;BME280;61342;51.442;7.370;2023-03-13T03:56:19;98476.63;;;11.18;100.00
71239;BME280;61342;51.442;7.370;2023-03-13T03:57:20;98466.63;;;11.19;100.00
71239;BME280;61342;51.442;7.370;2023-03-13T03:58:20;98469.50;;;11.19;100.00
71239;BME280;61342;51.442;7.370;2023-03-13T03:59:20;98471.06;;;11.20;100.00
71239;BME280;61342;51.442;7.370;2023-03-13T04:00:21;98468.00;;;11.18;100.00
71239;BME280;61342;51.442;7.370;2023-03-13T04:01:21;98472.59;;;11.21;100.00
71239;BME280;61342;51.442;7.370;2023-03-13T04:02:21;98475.47;;;11.21;100.00
71239;BME280;61342;51.442;7.370;2023-03-13T04:03:22;98467.03;;;11.23;100.00
71239;BME280;61342;51.442;7.370;2023-03-13T04:04:22;98479.09;;;11.21;100.00
71239;BME280;61342;51.442;7.370;2023-03-13T04:05:23;98445.56;;;11.16;100.00
71239;BME280;61342;51.442;7.370;2023-03-13T04:06:23;98478.13;;;11.26;100.00
71239;BME280;61342;51.442;7.370;2023-03-13T04:07:24;98464.53;;;11.27;100.00
71239;BME280;61342;51.442;7.370;2023-03-13T04:08:25;98474.88;;;11.30;100.00
71239;BME280;61342;51.442;7.370;2023-03-13T04:09:28;98461.09;;;11.28;100.00
71239;BME280;61342;51.442;7.370;2023-03-13T04:10:29;98463.38;;;11.30;100.00
71239;BME280;61342;51.442;7.370;2023-03-13T04:11:29;98473.72;;;11.33;100.00
71239;BME280;61342;51.442;7.370;2023-03-13T04:12:29;98489.06;;;11.35;100.00
71239;BME280;61342;51.442;7.370;2023-03-13T04:13:30;98470.25;;;11.34;100.00
71239;BME280;61342;51.442;7.370;2023-03-13T04:14:30;98476.97;;;11.37;100.00
71239;BME280;61342;51.442;7.370;2023-03-13T04:15:30;98475.63;;;11.38;100.00
71239;BME280;61342;51.442;7.370;2023-03-13T04:16:31;98473.50;;;11.38;100.00
71239;BME280;61342;51.442;7.370;2023-03-13T04:17:31;98479.25;;;11.38;100.00
71239;BME280;61342;51.442;7.370;2023-03-13T04:18:32;98478.88;;;11.42;100.00
71239;BME280;61342;51.442;7.370;2023-03-13T04:19:32;98479.47;;;11.40;100.00
71239;BME280;61342;51.442;7.370;2023-03-13T04:20:33;98476.75;;;11.42;100.00
71239;BME280;61342;51.442;7.370;2023-03-13T04:21:33;98479.63;;;11.42;100.00
71239;BME280;61342;51.442;7.370;2023-03-13T04:22:34;98470.41;;;11.44;100.00
71239;BME280;61342;51.442;7.370;2023-03-13T04:23:34;98474.84;;;11.45;100.00
71239;BME280;61342;51.442;7.370;2023-03-13T04:24:34;98482.88;;;11.46;100.00
71239;BME280;61342;51.442;7.370;2023-03-13T04:25:35;98480.78;;;11.47;100.00
71239;BME280;61342;51.442;7.370;2023-03-13T04:26:36;98484.44;;;11.47;100.00
71239;BME280;61342;51.442;7.370;2023-03-13T04:27:36;98477.34;;;11.48;100.00
71239;BME280;61342;51.442;7.370;2023-03-13T04:28:37;98477.34;;;11.48;100.00
71239;BME280;61342;51.442;7.370;2023-03-13T04:29:37;98476.03;;;11.49;100.00
71239;BME280;61342;51.442;7.370;2023-03-13T04:30:37;98486.94;;;11.51;100.00
71239;BME280;61342;51.442;7.370;2023-03-13T04:31:38;98482.53;;;11.50;100.00
71239;BME280;61342;51.442;7.370;2023-03-13T04:32:38;98476.78;;;11.50;100.00
71239;BME280;61342;51.442;7.370;2023-03-13T04:33:39;98472.75;;;11.52;100.00
71239;BME280;61342;51.442;7.370;2023-03-13T04:34:39;98475.63;;;11.52;100.00
71239;BME280;61342;51.442;7.370;2023-03-13T04:35:40;98477.16;;;11.53;100.00
71239;BME280;61342;51.442;7.370;2023-03-13T04:36:40;98457.59;;;11.52;100.00
71239;BME280;61342;51.442;7.370;2023-03-13T04:37:40;98467.19;;;11.54;100.00
71239;BME280;61342;51.442;7.370;2023-03-13T04:38:41;98467.19;;;11.54;100.00
71239;BME280;61342;51.442;7.370;2023-03-13T04:39:41;98460.06;;;11.55;100.00
71239;BME280;61342;51.442;7.370;2023-03-13T04:40:42;98448.38;;;11.53;100.00
71239;BME280;61342;51.442;7.370;2023-03-13T04:41:42;98454.88;;;11.54;100.00
71239;BME280;61342;51.442;7.370;2023-03-13T04:42:42;98443.97;;;11.52;100.00
71239;BME280;61342;51.442;7.370;2023-03-13T04:43:43;98444.16;;;11.54;100.00
71239;BME280;61342;51.442;7.370;2023-03-13T04:44:43;98450.09;;;11.56;100.00
71239;BME280;61342;51.442;7.370;2023-03-13T04:45:43;98452.59;;;11.52;100.00
71239;BME280;61342;51.442;7.370;2023-03-13T04:46:44;98442.63;;;11.53;100.00
71239;BME280;61342;51.442;7.370;2023-03-13T04:47:47;98439.91;;;11.55;100.00
71239;BME280;61342;51.442;7.370;2023-03-13T04:48:47;98442.78;;;11.55;100.00
71239;BME280;61342;51.442;7.370;2023-03-13T04:49:48;98448.38;;;11.53;100.00
71239;BME280;61342;51.442;7.370;2023-03-13T04:50:48;98455.25;;;11.58;100.00
71239;BME280;61342;51.442;7.370;2023-03-13T04:51:48;98445.50;;;11.53;100.00
71239;BME280;61342;51.442;7.370;2023-03-13T04:52:49;98450.09;;;11.56;100.00
71239;BME280;61342;51.442;7.370;2023-03-13T04:54:08;98447.63;;;11.53;100.00
71239;BME280;61342;51.442;7.370;2023-03-13T04:55:08;98446.63;;;11.58;100.00
71239;BME280;61342;51.442;7.370;2023-03-13T04:56:11;98451.78;;;11.59;100.00
71239;BME280;61342;51.442;7.370;2023-03-13T04:57:16;98450.28;;;11.58;100.00
71239;BME280;61342;51.442;7.370;2023-03-13T05:00:30;98438.03;;;11.51;100.00
71239;BME280;61342;51.442;7.370;2023-03-13T05:01:51;98431.28;;;11.55;100.00
71239;BME280;61342;51.442;7.370;2023-03-13T05:03:08;98446.03;;;11.59;100.00
71239;BME280;61342;51.442;7.370;2023-03-13T05:04:34;98420.38;;;11.47;100.00
71239;BME280;61342;51.442;7.370;2023-03-13T05:06:21;98437.22;;;11.57;100.00
71239;BME280;61342;51.442;7.370;2023-03-13T05:07:24;98411.75;;;11.47;100.00
71239;BME280;61342;51.442;7.370;2023-03-13T05:08:38;98426.84;;;11.62;100.00
71239;BME280;61342;51.442;7.370;2023-03-13T05:09:57;98434.94;;;11.63;100.00
71239;BME280;61342;51.442;7.370;2023-03-13T05:11:02;98412.50;;;11.54;100.00
71239;BME280;61342;51.442;7.370;2023-03-13T05:12:08;98414.44;;;11.52;100.00
71239;BME280;61342;51.442;7.370;2023-03-13T05:13:23;98410.78;;;11.51;100.00
71239;BME280;61342;51.442;7.370;2023-03-13T05:14:30;98421.50;;;11.58;100.00
71239;BME280;61342;51.442;7.370;2023-03-13T05:15:42;98408.47;;;11.57;100.00
71239;BME280;61342;51.442;7.370;2023-03-13T05:18:23;98406.34;;;11.58;100.00
71239;BME280;61342;51.442;7.370;2023-03-13T05:19:27;98431.41;;;11.72;100.00
71239;BME280;61342;51.442;7.370;2023-03-13T05:20:34;98429.69;;;11.69;100.00
71239;BME280;61342;51.442;7.370;2023-03-13T05:21:35;98417.81;;;11.65;100.00
71239;BME280;61342;51.442;7.370;2023-03-13T05:22:36;98413.78;;;11.68;100.00
71239;BME280;61342;51.442;7.370;2023-03-13T05:23:36;98427.75;;;11.79;100.00
71239;BME280;61342;51.442;7.370;2023-03-13T05:24:37;98421.06;;;11.69;100.00
71239;BME280;61342;51.442;7.370;2023-03-13T05:25:37;98419.50;;;11.76;100.00
71239;BME280;61342;51.442;7.370;2023-03-13T06:07:37;98433.16;;;10.84;100.00
71239;BME280;61342;51.442;7.370;2023-03-13T06:08:45;98432.38;;;10.91;100.00
71239;BME280;61342;51.442;7.370;2023-03-13T06:09:54;98408.81;;;10.85;100.00
71239;BME280;61342;51.442;7.370;2023-03-13T06:10:58;98427.38;;;11.06;100.00
71239;BME280;61342;51.442;7.370;2023-03-13T06:12:02;98402.44;;;11.09;100.00
71239;BME280;61342;51.442;7.370;2023-03-13T06:13:03;98417.94;;;11.21;100.00
71239;BME280;61342;51.442;7.370;2023-03-13T06:14:09;98406.44;;;11.28;100.00
71239;BME280;61342;51.442;7.370;2023-03-13T06:15:16;98411.00;;;11.39;100.00
71239;BME280;61342;51.442;7.370;2023-03-13T06:16:17;98392.38;;;11.40;100.00
71239;BME280;61342;51.442;7.370;2023-03-13T06:17:21;98416.13;;;11.55;100.00
71239;BME280;61342;51.442;7.370;2023-03-13T06:18:25;98397.53;;;11.56;100.00
71239;BME280;61342;51.442;7.370;2023-03-13T06:19:29;98393.84;;;11.63;100.00
71239;BME280;61342;51.442;7.370;2023-03-13T06:20:41;98402.03;;;11.74;100.00